ADDS METAR Data INFO
IDs: Format: Raw Decoded Include TAF

Data at: 0231 UTC 22 Jul 2017

KJAC 220151Z VRB06KT 10SM CLR 25/M03 A3020
KJAC 220051Z 00000KT 10SM CLR 26/M03 A3020
KJAC 212352Z 00000KT 10SM CLR 27/M03 A3021
KJAC 212252Z 21006KT 10SM CLR 27/M02 A3021
KJAC 212151Z 21012KT 10SM CLR 27/M03 A3022
KJAC 212051Z 21013KT 10SM CLR 27/M04 A3023
KJAC 211951Z 26006KT 10SM CLR 26/M01 A3024
KJAC 211851Z 22010KT 10SM CLR 25/04 A3025
KJAC 211751Z 00000KT 10SM CLR 22/10 A3026
KJAC 211651Z 00000KT 10SM CLR 18/11 A3027
KJAC 211551Z 00000KT 10SM CLR 14/11 A3027
KJAC 211451Z VRB04KT 10SM CLR 13/11 A3027
KJAC 211355Z 00000KT 10SM CLR 11/09 A3025
KJAC 211251Z 00000KT 10SM CLR 08/08 A3024
KJAC 211235Z AUTO 04003KT 10SM CLR 08/08 A3024 RMK AO1
KJAC 211215Z AUTO 00000KT 10SM CLR 07/07 A3023 RMK AO1
KJAC 211155Z AUTO 00000KT 10SM CLR 07/07 A3023 RMK AO1 70015 10140 20070 52017
KJAC 211135Z AUTO 35004KT 10SM CLR 08/08 A3022 RMK AO1
KJAC 211115Z AUTO 02003KT 10SM CLR 09/08 A3021 RMK AO1
KJAC 211055Z AUTO 05004KT 10SM CLR 09/08 A3021 RMK AO1
KJAC 211035Z AUTO 07005KT 10SM CLR 08/08 A3020 RMK AO1
KJAC 211015Z AUTO 35006KT 10SM CLR 08/07 A3020 RMK AO1
KJAC 210955Z AUTO 01004KT 10SM CLR 09/09 A3019 RMK AO1
KJAC 210935Z AUTO 36005KT 9SM CLR 09/09 A3019 RMK AO1
KJAC 210915Z AUTO 07003KT 10SM CLR 10/10 A3019 RMK AO1
KJAC 210855Z AUTO 11003KT 7SM SCT001 11/10 A3018 RMK AO1 57007
KJAC 210835Z AUTO 08004KT 1/2SM BKN001 10/10 A3018 RMK AO1
KJAC 210815Z AUTO 00000KT 1 3/4SM SCT002 09/08 A3019 RMK AO1
KJAC 210755Z AUTO 00000KT 1/2SM BKN002 11/10 A3019 RMK AO1
KJAC 210735Z AUTO 00000KT 10SM CLR 12/11 A3019 RMK AO1
KJAC 210715Z AUTO 00000KT 7SM CLR 11/11 A3019 RMK AO1
KJAC 210655Z AUTO 31003KT 3SM CLR 11/10 A3019 RMK AO1
KJAC 210635Z AUTO 00000KT 10SM CLR 14/13 A3020 RMK AO1
KJAC 210615Z AUTO 11003KT 10SM CLR 13/12 A3020 RMK AO1
KJAC 210555Z AUTO 00000KT 10SM CLR 14/12 A3020 RMK AO1 60006 10220 20130 52010
KJAC 210535Z AUTO 00000KT 10SM CLR 14/13 A3020 RMK AO1
KJAC 210515Z AUTO 00000KT 10SM CLR 14/13 A3020 RMK AO1
KJAC 210455Z AUTO 00000KT 10SM CLR 13/12 A3019 RMK AO1
KJAC 210435Z AUTO 00000KT 10SM CLR 14/14 A3019 RMK AO1
KJAC 210415Z AUTO 00000KT 10SM CLR 15/13 A3019 RMK AO1
KJAC 210355Z AUTO 00000KT 10SM CLR 16/14 A3019 RMK AO1
KJAC 210335Z AUTO 24003KT 10SM CLR 16/14 A3018 RMK AO1
KJAC 210315Z AUTO 00000KT 10SM CLR 18/13 A3018 RMK AO1
KJAC 210255Z AUTO 00000KT 10SM CLR 18/15 A3017 RMK AO1 60006 57007
KJAC 210251Z 00000KT 10SM CLR 18/14 A3017
KJAC 210151Z 00000KT 10SM CLR 20/14 A3017
KJAC 210051Z 00000KT 10SM CLR 21/14 A3018
KJAC 202351Z 00000KT 10SM VCSH SCT100 21/14 A3019
KJAC 202251Z 00000KT 10SM VCSH BKN100 18/16 A3022
KJAC 202151Z 06012KT 10SM VCSH BKN100 17/14 A3022
KJAC 202055Z 25015G25KT 10SM TS SCT013 BKN070 OVC090 21/14 A3022
KJAC 201951Z 19015KT 10SM VCSH SCT070 29/09 A3016
KJAC 201851Z 20010G20KT 10SM CLR 28/11 A3021
KJAC 201751Z 19009KT 10SM CLR 27/10 A
KJAC 201651Z 21007KT 10SM CLR 23/10 A3025
KJAC 201551Z 16003KT 10SM CLR 21/09 A3025
KJAC 201457Z 00000KT 10SM CLR 18/07 A3027